Time;durP1;ratioP1;P1;durP2;ratioP2;P2;SDS_P1;SDS_P2;PMS_P1;PMS_P2;Temp;Humidity;BMP_temperature;BMP_pressure;BME280_temperature;BME280_humidity;BME280_pressure;Samples;Min_cycle;Max_cycle;Signal;HPM_P1;HPM_P2
2022/11/03 00:01:43;;;;;;;16.23;4.80;;;;;;;;;;5075704;28;20235;-68
2022/11/03 00:04:13;;;;;;;13.43;4.47;;;;;;;;;;5076683;28;20209;-69
2022/11/03 00:06:40;;;;;;;12.83;4.80;;;;;;;;;;5076327;28;20321;-69
2022/11/03 00:09:07;;;;;;;12.97;4.83;;;;;;;;;;5076369;28;20539;-69
2022/11/03 00:11:34;;;;;;;12.47;4.50;;;;;;;;;;5076505;28;20173;-69
2022/11/03 00:14:00;;;;;;;16.60;4.20;;;;;;;;;;5075006;28;20178;-70
2022/11/03 00:16:26;;;;;;;11.60;3.80;;;;;;;;;;5074824;28;20202;-70
2022/11/03 00:18:52;;;;;;;12.13;4.53;;;;;;;;;;5074751;28;20189;-68
2022/11/03 00:21:18;;;;;;;9.93;3.57;;;;;;;;;;5076437;28;20564;-68
2022/11/03 00:23:44;;;;;;;9.37;3.80;;;;;;;;;;5075942;28;20173;-69
2022/11/03 00:26:13;;;;;;;12.07;4.33;;;;;;;;;;5074505;28;20217;-70
2022/11/03 00:28:40;;;;;;;13.97;3.73;;;;;;;;;;5074582;28;20185;-69
2022/11/03 00:31:08;;;;;;;10.97;3.83;;;;;;;;;;5076017;28;20613;-69
2022/11/03 00:33:34;;;;;;;15.03;4.23;;;;;;;;;;5075815;28;20178;-69
2022/11/03 00:36:00;;;;;;;13.10;3.53;;;;;;;;;;5075992;28;20209;-69
2022/11/03 00:38:27;;;;;;;11.47;3.40;;;;;;;;;;5075790;28;20207;-69
2022/11/03 00:40:57;;;;;;;8.90;3.63;;;;;;;;;;5076011;28;20228;-69
2022/11/03 00:43:24;;;;;;;15.20;4.60;;;;;;;;;;5076423;28;20173;-69
2022/11/03 00:45:50;;;;;;;9.43;3.73;;;;;;;;;;5074029;28;20217;-69
2022/11/03 00:48:28;;;;;;;13.67;4.10;;;;;;;;;;5075783;28;20174;-70
2022/11/03 00:51:28;;;;;;;9.00;3.53;;;;;;;;;;5076031;28;20154;-69
2022/11/03 00:53:58;;;;;;;11.93;4.07;;;;;;;;;;5031894;28;20186;-68
2022/11/03 00:56:26;;;;;;;11.17;4.10;;;;;;;;;;5074136;28;20208;-69
2022/11/03 00:58:52;;;;;;;9.77;4.00;;;;;;;;;;5075051;28;20205;-69
2022/11/03 01:01:21;;;;;;;11.00;4.13;;;;;;;;;;5075197;28;20192;-70
2022/11/03 01:06:49;;;;;;;15.80;3.60;;;;;;;;;;5075530;28;20240;-70
2022/11/03 01:09:47;;;;;;;12.07;4.10;;;;;;;;;;5074033;28;20565;-69
2022/11/03 01:12:15;;;;;;;13.63;3.83;;;;;;;;;;5030726;28;20192;-69
2022/11/03 01:14:44;;;;;;;9.90;3.90;;;;;;;;;;5073907;28;20615;-69
2022/11/03 01:17:11;;;;;;;11.93;3.53;;;;;;;;;;5075244;28;20681;-69
2022/11/03 01:19:37;;;;;;;14.90;4.13;;;;;;;;;;5075297;28;20260;-70
2022/11/03 01:22:03;;;;;;;12.63;4.10;;;;;;;;;;5073761;28;20624;-69
2022/11/03 01:24:29;;;;;;;11.27;4.33;;;;;;;;;;5073778;28;20251;-69
2022/11/03 01:26:55;;;;;;;18.07;4.60;;;;;;;;;;5075150;28;20205;-69
2022/11/03 01:29:21;;;;;;;14.13;3.93;;;;;;;;;;5073646;28;20185;-68
2022/11/03 01:31:47;;;;;;;10.07;4.10;;;;;;;;;;5075020;28;20716;-69
2022/11/03 01:34:18;;;;;;;10.17;3.50;;;;;;;;;;5073693;28;20182;-70
2022/11/03 01:36:44;;;;;;;14.23;4.63;;;;;;;;;;5075363;28;20189;-69
2022/11/03 01:39:11;;;;;;;12.90;4.50;;;;;;;;;;5074246;28;20200;-71
2022/11/03 01:41:37;;;;;;;11.20;3.80;;;;;;;;;;5080735;28;20192;-69
2022/11/03 01:44:09;;;;;;;13.57;3.43;;;;;;;;;;5080901;28;20173;-70
2022/11/03 01:46:47;;;;;;;11.23;4.10;;;;;;;;;;5081139;28;20209;-69
2022/11/03 01:49:15;;;;;;;17.40;4.40;;;;;;;;;;5082394;28;20178;-69
2022/11/03 01:51:43;;;;;;;13.93;4.43;;;;;;;;;;5074762;28;20174;-68
2022/11/03 01:54:12;;;;;;;15.10;4.30;;;;;;;;;;5074320;28;20180;-70
2022/11/03 01:56:40;;;;;;;18.23;4.27;;;;;;;;;;5074472;28;20265;-70
2022/11/03 01:59:07;;;;;;;12.53;4.30;;;;;;;;;;5074384;28;20227;-69
2022/11/03 02:01:33;;;;;;;13.07;4.90;;;;;;;;;;5073265;28;20551;-69
2022/11/03 02:04:02;;;;;;;11.57;3.90;;;;;;;;;;5073289;28;20602;-70
2022/11/03 02:06:29;;;;;;;14.93;4.77;;;;;;;;;;5074378;28;20209;-69
2022/11/03 02:09:05;;;;;;;18.93;4.43;;;;;;;;;;5074705;28;20234;-69
2022/11/03 02:14:19;;;;;;;10.53;3.77;;;;;;;;;;5074658;28;20173;-69
2022/11/03 02:16:48;;;;;;;10.93;3.50;;;;;;;;;;5072839;28;20213;-70
2022/11/03 02:19:21;;;;;;;8.93;4.20;;;;;;;;;;5072723;28;20272;-69
2022/11/03 02:21:53;;;;;;;11.50;4.23;;;;;;;;;;5074553;28;20257;-70
2022/11/03 02:24:26;;;;;;;15.03;5.27;;;;;;;;;;5074801;28;20170;-69
2022/11/03 02:26:54;;;;;;;10.93;4.80;;;;;;;;;;5072818;28;20214;-69
2022/11/03 02:29:20;;;;;;;9.90;4.20;;;;;;;;;;5074167;28;20170;-69
2022/11/03 02:31:49;;;;;;;16.83;4.73;;;;;;;;;;5074365;28;20610;-69
2022/11/03 02:34:26;;;;;;;15.17;4.47;;;;;;;;;;5072726;28;20181;-69
2022/11/03 02:37:01;;;;;;;16.20;5.37;;;;;;;;;;5072826;28;20174;-71
2022/11/03 02:39:30;;;;;;;13.73;4.63;;;;;;;;;;5072693;28;20196;-69
2022/11/03 02:41:57;;;;;;;15.63;5.37;;;;;;;;;;5072647;28;20185;-70
2022/11/03 02:44:24;;;;;;;13.00;4.17;;;;;;;;;;5072481;28;20643;-70
2022/11/03 02:46:54;;;;;;;14.63;4.30;;;;;;;;;;5072731;28;20202;-70
2022/11/03 02:49:20;;;;;;;15.37;4.73;;;;;;;;;;5073829;28;20227;-69
2022/11/03 02:51:46;;;;;;;12.70;4.53;;;;;;;;;;5073943;28;20243;-70
2022/11/03 02:54:23;;;;;;;13.37;4.57;;;;;;;;;;5074261;28;20635;-70
2022/11/03 02:56:50;;;;;;;10.73;4.30;;;;;;;;;;5072774;28;20162;-70
2022/11/03 02:59:19;;;;;;;10.13;3.90;;;;;;;;;;5073570;28;20411;-69
2022/11/03 03:01:51;;;;;;;10.90;4.90;;;;;;;;;;5072258;28;20181;-70
2022/11/03 03:04:21;;;;;;;13.30;4.20;;;;;;;;;;5073699;28;20263;-70
2022/11/03 03:06:57;;;;;;;13.77;4.47;;;;;;;;;;5073830;28;20620;-70
2022/11/03 03:09:25;;;;;;;15.27;4.10;;;;;;;;;;5073792;28;20178;-69
2022/11/03 03:11:53;;;;;;;16.20;4.40;;;;;;;;;;5074149;28;20204;-70
2022/11/03 03:14:24;;;;;;;8.93;3.67;;;;;;;;;;5072204;28;20653;-69
2022/11/03 03:16:59;;;;;;;11.60;4.00;;;;;;;;;;5075516;28;20658;-69
2022/11/03 03:19:31;;;;;;;17.13;4.50;;;;;;;;;;5079818;28;20264;-69
2022/11/03 03:22:00;;;;;;;19.60;4.87;;;;;;;;;;5082830;28;20182;-70
2022/11/03 03:24:29;;;;;;;10.20;4.70;;;;;;;;;;5083903;28;20288;-69
2022/11/03 03:26:57;;;;;;;12.67;3.93;;;;;;;;;;5078528;28;20228;-70
2022/11/03 03:29:45;;;;;;;8.03;3.87;;;;;;;;;;5076593;28;20197;-70
2022/11/03 03:32:11;;;;;;;11.63;4.63;;;;;;;;;;5077702;28;20646;-69
2022/11/03 03:34:39;;;;;;;14.40;4.50;;;;;;;;;;5077849;28;20200;-70
2022/11/03 03:37:06;;;;;;;13.43;4.17;;;;;;;;;;5077195;28;20181;-70
2022/11/03 03:39:33;;;;;;;14.10;4.50;;;;;;;;;;5075808;28;20654;-70
2022/11/03 03:42:01;;;;;;;14.47;4.20;;;;;;;;;;5077453;28;20188;-70
2022/11/03 03:44:27;;;;;;;11.33;4.03;;;;;;;;;;5075348;28;20316;-70
2022/11/03 03:47:01;;;;;;;11.83;3.90;;;;;;;;;;5077022;28;20201;-69
2022/11/03 03:49:28;;;;;;;12.57;4.23;;;;;;;;;;5076903;28;20191;-70
2022/11/03 03:51:54;;;;;;;13.70;4.47;;;;;;;;;;5076631;28;20647;-70
2022/11/03 03:54:20;;;;;;;15.37;4.50;;;;;;;;;;5076640;28;20177;-70
2022/11/03 03:56:52;;;;;;;16.93;4.47;;;;;;;;;;5077135;28;20188;-69
2022/11/03 03:59:18;;;;;;;12.50;4.40;;;;;;;;;;5075234;28;20170;-70
2022/11/03 04:01:44;;;;;;;13.07;4.73;;;;;;;;;;5076440;28;20186;-70
2022/11/03 04:04:10;;;;;;;11.73;4.40;;;;;;;;;;5076718;28;20184;-70
2022/11/03 04:06:35;;;;;;;12.57;5.10;;;;;;;;;;5075034;28;20301;-70
2022/11/03 04:09:01;;;;;;;15.47;4.93;;;;;;;;;;5076668;28;20177;-70
2022/11/03 04:22:28;;;;;;;11.87;4.17;;;;;;;;;;5076655;28;20173;-70
2022/11/03 04:24:54;;;;;;;14.00;4.60;;;;;;;;;;5075927;28;20205;-69
2022/11/03 04:27:22;;;;;;;14.40;4.67;;;;;;;;;;5076505;28;20250;-70
2022/11/03 04:29:48;;;;;;;13.97;4.23;;;;;;;;;;5075984;28;20204;-69
2022/11/03 04:32:16;;;;;;;12.77;4.50;;;;;;;;;;5075997;28;20639;-69
2022/11/03 04:34:42;;;;;;;10.10;3.97;;;;;;;;;;5073777;28;20220;-70
2022/11/03 04:37:15;;;;;;;13.43;5.13;;;;;;;;;;5075873;28;20220;-70
2022/11/03 04:39:41;;;;;;;18.20;5.07;;;;;;;;;;5076004;28;20205;-69
2022/11/03 04:42:20;;;;;;;12.57;4.60;;;;;;;;;;5075922;28;20529;-69
2022/11/03 04:44:47;;;;;;;13.83;4.80;;;;;;;;;;5075622;28;20555;-69
2022/11/03 04:47:13;;;;;;;13.77;4.03;;;;;;;;;;5074180;28;20209;-71
2022/11/03 04:49:40;;;;;;;15.47;5.03;;;;;;;;;;5075462;28;20177;-69
2022/11/03 04:52:12;;;;;;;15.83;4.93;;;;;;;;;;5074166;28;20185;-70
2022/11/03 04:54:38;;;;;;;11.67;4.50;;;;;;;;;;5075354;28;20194;-69
2022/11/03 04:57:11;;;;;;;14.93;4.97;;;;;;;;;;5075614;28;20261;-69
2022/11/03 04:59:37;;;;;;;13.10;4.80;;;;;;;;;;5075432;28;20196;-70
2022/11/03 05:02:03;;;;;;;15.87;5.27;;;;;;;;;;5074164;28;20641;-69
2022/11/03 05:04:29;;;;;;;17.10;4.40;;;;;;;;;;5075304;28;20198;-69
2022/11/03 05:06:55;;;;;;;9.63;4.20;;;;;;;;;;5075101;28;20209;-68
2022/11/03 05:09:26;;;;;;;16.03;5.20;;;;;;;;;;5074011;28;20308;-68
2022/11/03 05:11:53;;;;;;;15.27;4.37;;;;;;;;;;5074184;28;20182;-69
2022/11/03 05:14:19;;;;;;;20.10;5.97;;;;;;;;;;5075444;28;20202;-69
2022/11/03 05:16:45;;;;;;;14.53;4.93;;;;;;;;;;5075212;28;20235;-68
2022/11/03 05:19:20;;;;;;;11.10;4.07;;;;;;;;;;5075259;28;20231;-68
2022/11/03 05:21:50;;;;;;;12.37;4.60;;;;;;;;;;5074981;28;20588;-69
2022/11/03 05:24:17;;;;;;;12.97;5.23;;;;;;;;;;5073588;28;20192;-68
2022/11/03 05:26:44;;;;;;;17.70;5.33;;;;;;;;;;5075108;28;20683;-68
2022/11/03 05:29:15;;;;;;;11.93;4.97;;;;;;;;;;5073553;28;20178;-69
2022/11/03 05:31:42;;;;;;;14.30;4.50;;;;;;;;;;5073452;28;20170;-68
2022/11/03 05:34:27;;;;;;;14.03;4.93;;;;;;;;;;5075142;28;20166;-69
2022/11/03 05:36:53;;;;;;;10.70;3.87;;;;;;;;;;5073394;28;20185;-70
2022/11/03 05:39:28;;;;;;;9.60;4.37;;;;;;;;;;5073388;28;20273;-68
2022/11/03 05:41:54;;;;;;;16.30;4.87;;;;;;;;;;5074721;28;20719;-69
2022/11/03 05:44:35;;;;;;;10.40;4.33;;;;;;;;;;5072858;28;20181;-69
2022/11/03 05:47:02;;;;;;;14.47;4.10;;;;;;;;;;5073083;28;20209;-70
2022/11/03 05:49:28;;;;;;;12.10;4.27;;;;;;;;;;5073380;28;20178;-68
2022/11/03 05:51:54;;;;;;;15.53;4.17;;;;;;;;;;5073352;28;20177;-68
2022/11/03 05:54:22;;;;;;;9.70;3.90;;;;;;;;;;5072961;28;20630;-69
2022/11/03 05:56:49;;;;;;;14.17;4.57;;;;;;;;;;5074173;28;20235;-68
2022/11/03 05:59:18;;;;;;;15.40;5.53;;;;;;;;;;5074399;28;20193;-69
2022/11/03 06:01:44;;;;;;;16.00;4.17;;;;;;;;;;5074368;28;20210;-69
2022/11/03 06:04:15;;;;;;;11.53;3.97;;;;;;;;;;5074384;28;20723;-69
2022/11/03 06:06:41;;;;;;;12.70;4.13;;;;;;;;;;5072802;28;20205;-68
2022/11/03 06:09:14;;;;;;;14.13;4.30;;;;;;;;;;5072922;28;20607;-68
2022/11/03 06:11:40;;;;;;;14.37;4.53;;;;;;;;;;5072828;28;20181;-69
2022/11/03 06:14:32;;;;;;;15.43;4.13;;;;;;;;;;5074144;28;20657;-69
2022/11/03 06:17:06;;;;;;;15.93;4.50;;;;;;;;;;5069410;28;20186;-69
2022/11/03 06:22:11;;;;;;;16.43;4.73;;;;;;;;;;5095189;22;20238;-64
2022/11/03 06:24:37;;;;;;;9.63;3.50;;;;;;;;;;5053872;28;20165;-65
2022/11/03 06:27:03;;;;;;;13.70;4.17;;;;;;;;;;5053343;28;20206;-65
2022/11/03 06:29:30;;;;;;;11.20;3.90;;;;;;;;;;5053392;28;20254;-65
2022/11/03 06:31:56;;;;;;;13.30;4.17;;;;;;;;;;5053246;28;20252;-65
2022/11/03 06:34:33;;;;;;;12.70;4.23;;;;;;;;;;5053202;28;20248;-65
2022/11/03 06:37:01;;;;;;;13.57;4.10;;;;;;;;;;5053368;28;20591;-65
2022/11/03 06:39:27;;;;;;;15.63;3.90;;;;;;;;;;5053314;28;20183;-65
2022/11/03 06:41:53;;;;;;;9.47;3.53;;;;;;;;;;5035331;28;20221;-64
2022/11/03 06:44:22;;;;;;;11.17;3.97;;;;;;;;;;5035395;28;20185;-64
2022/11/03 06:46:48;;;;;;;14.00;4.57;;;;;;;;;;5053176;28;20288;-64
2022/11/03 06:49:27;;;;;;;15.73;4.00;;;;;;;;;;5053373;28;20257;-64
2022/11/03 06:51:53;;;;;;;7.97;3.60;;;;;;;;;;5053653;28;20650;-64
2022/11/03 06:54:19;;;;;;;16.60;4.07;;;;;;;;;;5053198;28;20170;-64
2022/11/03 06:56:45;;;;;;;11.47;3.80;;;;;;;;;;5035095;28;20327;-66
2022/11/03 06:59:13;;;;;;;11.70;3.90;;;;;;;;;;5053111;28;20182;-64
2022/11/03 07:01:39;;;;;;;10.80;4.30;;;;;;;;;;5053504;28;20226;-64
2022/11/03 07:04:15;;;;;;;14.70;4.20;;;;;;;;;;5053543;28;20248;-63
2022/11/03 07:06:42;;;;;;;11.27;3.90;;;;;;;;;;5035443;28;20220;-64
2022/11/03 07:09:13;;;;;;;10.27;3.80;;;;;;;;;;5053380;28;20301;-64
2022/11/03 07:11:43;;;;;;;13.93;3.60;;;;;;;;;;5053336;28;20205;-64
2022/11/03 07:14:14;;;;;;;12.47;4.30;;;;;;;;;;5036245;28;20184;-64
2022/11/03 07:16:43;;;;;;;9.53;3.80;;;;;;;;;;5053591;28;20648;-64
2022/11/03 07:19:23;;;;;;;11.77;4.27;;;;;;;;;;5053541;28;20174;-64
2022/11/03 07:21:58;;;;;;;15.40;4.10;;;;;;;;;;5035714;28;20222;-63
2022/11/03 07:24:26;;;;;;;7.73;3.73;;;;;;;;;;5053622;28;20178;-65
2022/11/03 07:27:12;;;;;;;14.70;4.23;;;;;;;;;;5053516;28;20662;-64
2022/11/03 07:29:39;;;;;;;13.00;4.07;;;;;;;;;;5035013;28;20267;-64
2022/11/03 07:32:08;;;;;;;11.30;4.23;;;;;;;;;;5053296;28;20209;-64
2022/11/03 07:34:35;;;;;;;10.77;3.70;;;;;;;;;;5035311;28;20217;-64
2022/11/03 07:37:01;;;;;;;17.83;3.40;;;;;;;;;;5052888;28;20670;-64
2022/11/03 07:39:29;;;;;;;15.33;3.73;;;;;;;;;;5054263;28;20252;-64
2022/11/03 07:41:55;;;;;;;12.53;4.10;;;;;;;;;;5054984;28;20206;-64
2022/11/03 07:44:21;;;;;;;10.03;3.23;;;;;;;;;;5054209;28;20174;-64
2022/11/03 07:46:48;;;;;;;11.43;3.37;;;;;;;;;;5035331;28;20214;-64
2022/11/03 07:49:25;;;;;;;11.40;3.67;;;;;;;;;;5052839;28;20174;-64
2022/11/03 07:51:53;;;;;;;12.00;4.10;;;;;;;;;;5052957;28;20551;-64
2022/11/03 07:54:20;;;;;;;17.97;4.07;;;;;;;;;;5053232;28;20167;-64
2022/11/03 07:56:51;;;;;;;13.70;4.53;;;;;;;;;;5035159;28;20179;-63
2022/11/03 07:59:19;;;;;;;12.17;3.87;;;;;;;;;;5034735;28;20320;-64
2022/11/03 08:01:47;;;;;;;11.03;3.67;;;;;;;;;;5053103;28;20229;-65
2022/11/03 08:04:17;;;;;;;12.47;4.00;;;;;;;;;;5052907;28;20179;-64
2022/11/03 08:06:43;;;;;;;9.23;3.97;;;;;;;;;;5052753;28;20289;-65
2022/11/03 08:09:09;;;;;;;9.47;3.97;;;;;;;;;;5036435;28;20178;-65
2022/11/03 08:11:34;;;;;;;17.87;4.30;;;;;;;;;;5055867;28;20259;-65
2022/11/03 08:14:00;;;;;;;15.97;4.70;;;;;;;;;;5056310;28;20228;-66
2022/11/03 08:16:26;;;;;;;14.67;4.40;;;;;;;;;;5038398;28;20182;-67
2022/11/03 08:18:53;;;;;;;9.90;4.10;;;;;;;;;;5056773;28;20237;-64
2022/11/03 08:21:19;;;;;;;13.00;4.53;;;;;;;;;;5056048;28;20213;-66
2022/11/03 08:23:44;;;;;;;10.37;4.00;;;;;;;;;;5055942;28;20261;-62
2022/11/03 08:26:10;;;;;;;11.70;4.77;;;;;;;;;;5037852;28;20682;-66
2022/11/03 08:28:36;;;;;;;13.60;5.00;;;;;;;;;;5037901;28;20182;-64
2022/11/03 08:31:05;;;;;;;12.30;5.00;;;;;;;;;;5055586;28;20224;-65
2022/11/03 08:33:32;;;;;;;12.10;4.67;;;;;;;;;;5037673;28;20228;-65
2022/11/03 08:35:59;;;;;;;8.47;4.30;;;;;;;;;;5037757;28;20183;-64
2022/11/03 08:38:24;;;;;;;9.07;3.87;;;;;;;;;;5055615;28;20178;-64
2022/11/03 08:40:51;;;;;;;13.47;6.67;;;;;;;;;;5055446;28;20201;-67
2022/11/03 08:43:17;;;;;;;14.70;5.27;;;;;;;;;;5055598;28;20235;-66
2022/11/03 08:45:43;;;;;;;15.30;5.10;;;;;;;;;;5055502;28;20187;-64
2022/11/03 08:48:08;;;;;;;9.77;4.63;;;;;;;;;;5055275;28;20175;-63
2022/11/03 08:50:34;;;;;;;18.10;4.93;;;;;;;;;;5055043;28;20209;-65
2022/11/03 08:53:00;;;;;;;12.20;4.70;;;;;;;;;;5037292;28;20299;-65
2022/11/03 08:55:26;;;;;;;15.30;5.17;;;;;;;;;;5037236;28;20175;-63
2022/11/03 08:57:52;;;;;;;13.23;4.37;;;;;;;;;;5055320;28;20546;-64
2022/11/03 09:00:18;;;;;;;13.73;4.80;;;;;;;;;;5037184;28;20210;-65
2022/11/03 09:02:44;;;;;;;12.10;4.77;;;;;;;;;;5036978;28;20182;-62
2022/11/03 09:05:11;;;;;;;10.97;4.57;;;;;;;;;;5055204;28;20186;-65
2022/11/03 09:07:38;;;;;;;14.47;5.10;;;;;;;;;;5054917;28;20202;-65
2022/11/03 09:10:05;;;;;;;11.90;4.50;;;;;;;;;;5037260;28;20221;-63
2022/11/03 09:12:31;;;;;;;14.60;4.70;;;;;;;;;;5054827;28;20553;-65
2022/11/03 09:14:57;;;;;;;18.57;4.57;;;;;;;;;;5037282;28;20174;-64
2022/11/03 09:17:23;;;;;;;11.57;4.50;;;;;;;;;;5054643;28;20175;-65
2022/11/03 09:19:49;;;;;;;14.43;4.83;;;;;;;;;;5036448;28;20186;-61
2022/11/03 09:22:15;;;;;;;13.43;4.93;;;;;;;;;;5054612;28;20278;-64
2022/11/03 09:24:41;;;;;;;9.23;4.23;;;;;;;;;;5054506;28;20667;-64
2022/11/03 09:27:07;;;;;;;10.70;4.53;;;;;;;;;;5054365;28;20206;-64
2022/11/03 09:29:33;;;;;;;9.23;4.47;;;;;;;;;;5054456;28;20181;-64
2022/11/03 09:31:59;;;;;;;13.20;5.73;;;;;;;;;;5054314;28;20191;-64
2022/11/03 09:34:25;;;;;;;10.90;4.30;;;;;;;;;;5054309;28;20182;-64
2022/11/03 09:36:51;;;;;;;11.10;4.37;;;;;;;;;;5036369;28;20213;-64
2022/11/03 09:39:17;;;;;;;8.70;4.00;;;;;;;;;;5054210;28;20617;-64
2022/11/03 09:41:43;;;;;;;13.37;5.83;;;;;;;;;;5054373;28;20198;-64
2022/11/03 09:44:09;;;;;;;11.60;4.07;;;;;;;;;;5054086;28;20190;-64
2022/11/03 09:46:35;;;;;;;12.93;4.87;;;;;;;;;;5036230;28;20309;-63
2022/11/03 09:49:02;;;;;;;12.57;4.43;;;;;;;;;;5036161;28;20205;-65
2022/11/03 09:51:28;;;;;;;15.13;5.13;;;;;;;;;;5036079;28;20198;-65
2022/11/03 09:54:01;;;;;;;17.70;6.30;;;;;;;;;;5036177;28;20269;-64
2022/11/03 09:56:27;;;;;;;18.80;9.10;;;;;;;;;;5054791;28;20178;-64
2022/11/03 09:58:53;;;;;;;13.67;8.37;;;;;;;;;;5036059;28;20183;-64
2022/11/03 10:01:19;;;;;;;15.97;9.10;;;;;;;;;;5053860;28;20198;-64
2022/11/03 10:03:45;;;;;;;22.60;14.40;;;;;;;;;;5053782;28;20182;-63
2022/11/03 10:06:11;;;;;;;30.90;19.10;;;;;;;;;;5053630;28;20213;-64
2022/11/03 10:08:38;;;;;;;13.57;6.87;;;;;;;;;;5035696;28;20186;-63
2022/11/03 10:11:08;;;;;;;13.30;5.03;;;;;;;;;;5053547;28;20197;-64
2022/11/03 10:13:38;;;;;;;15.00;4.63;;;;;;;;;;5053700;28;20171;-64
2022/11/03 10:16:06;;;;;;;14.57;4.77;;;;;;;;;;5053586;28;20174;-64
2022/11/03 10:18:33;;;;;;;8.07;3.80;;;;;;;;;;5035681;28;20654;-64
2022/11/03 10:21:02;;;;;;;20.43;11.53;;;;;;;;;;5053471;28;20225;-64
2022/11/03 10:23:28;;;;;;;17.53;6.50;;;;;;;;;;5053609;28;20182;-64
2022/11/03 10:26:03;;;;;;;10.63;5.43;;;;;;;;;;5053643;28;20209;-64
2022/11/03 10:28:29;;;;;;;9.63;3.90;;;;;;;;;;5053691;28;20166;-64
2022/11/03 10:30:55;;;;;;;11.97;3.63;;;;;;;;;;5052858;28;20268;-64
2022/11/03 10:33:27;;;;;;;11.33;3.60;;;;;;;;;;5053772;28;20174;-64
2022/11/03 10:35:53;;;;;;;13.80;3.93;;;;;;;;;;5035534;28;20276;-65
2022/11/03 10:38:21;;;;;;;10.67;3.83;;;;;;;;;;5053363;28;20178;-64
2022/11/03 10:40:47;;;;;;;10.30;3.83;;;;;;;;;;5035497;28;20240;-64
2022/11/03 10:43:13;;;;;;;7.63;3.30;;;;;;;;;;5053333;28;20178;-62
2022/11/03 10:45:39;;;;;;;7.83;3.63;;;;;;;;;;5035318;28;20665;-65
2022/11/03 10:48:08;;;;;;;11.30;3.10;;;;;;;;;;5053203;28;20612;-63
2022/11/03 10:50:34;;;;;;;11.27;3.73;;;;;;;;;;5035362;28;20220;-63
2022/11/03 10:53:01;;;;;;;12.50;3.83;;;;;;;;;;5035524;28;20178;-63
2022/11/03 10:55:28;;;;;;;11.87;3.60;;;;;;;;;;5035498;28;20182;-63
2022/11/03 10:57:54;;;;;;;5.80;2.83;;;;;;;;;;5053787;28;20251;-64
2022/11/03 11:00:20;;;;;;;7.50;3.00;;;;;;;;;;5035251;28;20202;-65
2022/11/03 11:02:47;;;;;;;9.60;3.50;;;;;;;;;;5053033;28;20190;-65
2022/11/03 11:05:15;;;;;;;9.17;3.07;;;;;;;;;;5053089;28;20184;-65
2022/11/03 11:07:42;;;;;;;9.07;2.87;;;;;;;;;;5053144;28;20213;-63
2022/11/03 11:10:11;;;;;;;9.37;3.53;;;;;;;;;;5035050;28;20667;-64
2022/11/03 11:12:37;;;;;;;9.77;3.00;;;;;;;;;;5052994;28;20174;-64
2022/11/03 11:15:23;;;;;;;6.03;3.23;;;;;;;;;;5053351;28;20631;-66
2022/11/03 11:17:49;;;;;;;10.50;3.13;;;;;;;;;;5052956;28;20665;-65
2022/11/03 11:20:20;;;;;;;8.50;3.30;;;;;;;;;;5053417;28;20210;-64
2022/11/03 11:22:46;;;;;;;7.40;3.33;;;;;;;;;;5052888;28;20182;-64
2022/11/03 11:25:12;;;;;;;7.43;2.80;;;;;;;;;;5034988;28;20204;-64
2022/11/03 11:27:38;;;;;;;7.70;3.03;;;;;;;;;;5034891;28;20210;-64
2022/11/03 11:30:06;;;;;;;10.00;3.67;;;;;;;;;;5053192;28;20198;-65
2022/11/03 11:32:41;;;;;;;9.90;3.00;;;;;;;;;;5052804;28;20170;-64
2022/11/03 11:35:11;;;;;;;7.80;2.67;;;;;;;;;;5052665;28;20170;-63
2022/11/03 11:37:38;;;;;;;11.60;3.40;;;;;;;;;;5052688;28;20268;-64
2022/11/03 11:40:14;;;;;;;4.33;2.70;;;;;;;;;;5035123;28;20222;-66
2022/11/03 11:43:00;;;;;;;8.37;2.97;;;;;;;;;;5053956;28;20186;-62
2022/11/03 11:45:44;;;;;;;8.83;3.20;;;;;;;;;;5056677;28;20186;-64
2022/11/03 11:48:19;;;;;;;5.30;2.70;;;;;;;;;;5038914;28;20186;-63
2022/11/03 11:50:45;;;;;;;6.53;2.70;;;;;;;;;;5038714;28;20210;-63
2022/11/03 11:53:13;;;;;;;6.37;2.73;;;;;;;;;;5056514;28;20182;-63
2022/11/03 11:55:39;;;;;;;7.53;2.67;;;;;;;;;;5038602;28;20188;-64
2022/11/03 11:58:12;;;;;;;7.73;2.30;;;;;;;;;;5056353;28;20174;-64
2022/11/03 12:00:49;;;;;;;9.13;2.33;;;;;;;;;;5038443;28;20202;-64
2022/11/03 12:03:15;;;;;;;8.20;2.80;;;;;;;;;;5056370;28;20173;-64
2022/11/03 12:05:41;;;;;;;5.10;2.17;;;;;;;;;;5038187;28;20187;-64
2022/11/03 12:08:17;;;;;;;7.70;2.20;;;;;;;;;;5056331;28;20198;-64
2022/11/03 12:10:52;;;;;;;7.83;2.77;;;;;;;;;;5038043;28;20198;-64
2022/11/03 12:13:43;;;;;;;8.53;2.80;;;;;;;;;;5056465;28;20158;-64
2022/11/03 12:16:10;;;;;;;5.37;2.57;;;;;;;;;;5056149;28;20627;-64
2022/11/03 12:18:36;;;;;;;8.67;2.77;;;;;;;;;;5055850;28;20257;-63
2022/11/03 12:21:02;;;;;;;8.07;2.77;;;;;;;;;;5066706;22;20204;-69
2022/11/03 12:23:34;;;;;;;9.07;2.57;;;;;;;;;;5076377;28;20241;-70
2022/11/03 12:26:00;;;;;;;5.37;2.23;;;;;;;;;;5076341;28;20670;-70
2022/11/03 12:28:32;;;;;;;11.43;2.63;;;;;;;;;;5075093;28;20182;-70
2022/11/03 12:30:58;;;;;;;5.90;2.30;;;;;;;;;;5076038;28;20180;-70
2022/11/03 12:33:25;;;;;;;4.87;2.40;;;;;;;;;;5076250;28;20170;-70
2022/11/03 12:35:52;;;;;;;10.73;2.93;;;;;;;;;;5076483;28;20201;-69
2022/11/03 12:38:18;;;;;;;5.33;2.70;;;;;;;;;;5076048;28;20257;-70
2022/11/03 12:40:44;;;;;;;4.70;2.10;;;;;;;;;;5076560;28;20174;-70
2022/11/03 12:43:10;;;;;;;6.97;2.50;;;;;;;;;;5074812;28;20733;-70
2022/11/03 12:45:36;;;;;;;6.73;2.70;;;;;;;;;;5076149;28;20664;-70
2022/11/03 12:48:02;;;;;;;7.57;2.17;;;;;;;;;;5075853;28;20216;-70
2022/11/03 12:50:28;;;;;;;6.93;2.47;;;;;;;;;;5074554;28;20186;-72
2022/11/03 12:52:54;;;;;;;8.77;2.50;;;;;;;;;;5075758;28;20208;-70
2022/11/03 12:55:20;;;;;;;8.37;2.90;;;;;;;;;;5073730;28;20170;-72
2022/11/03 12:57:46;;;;;;;8.70;2.40;;;;;;;;;;5074519;28;20186;-70
2022/11/03 13:00:13;;;;;;;7.97;2.60;;;;;;;;;;5074482;28;20185;-70
2022/11/03 13:02:39;;;;;;;9.23;2.23;;;;;;;;;;5074312;28;20202;-70
2022/11/03 13:05:05;;;;;;;7.37;2.20;;;;;;;;;;5074270;28;20576;-70
2022/11/03 13:07:31;;;;;;;8.03;2.63;;;;;;;;;;5074333;28;20213;-71
2022/11/03 13:09:57;;;;;;;5.50;2.40;;;;;;;;;;5074426;28;20178;-71
2022/11/03 13:12:34;;;;;;;6.60;3.07;;;;;;;;;;5075739;28;20200;-71
2022/11/03 13:15:01;;;;;;;13.93;7.80;;;;;;;;;;5075595;28;20151;-71
2022/11/03 13:17:27;;;;;;;8.33;2.67;;;;;;;;;;5075994;28;20182;-71
2022/11/03 13:19:53;;;;;;;5.43;2.80;;;;;;;;;;5075756;28;20231;-71
2022/11/03 13:22:19;;;;;;;4.90;2.67;;;;;;;;;;5075158;28;20225;-71
2022/11/03 13:24:45;;;;;;;7.13;2.57;;;;;;;;;;5075257;28;20185;-71
2022/11/03 13:27:12;;;;;;;7.47;2.83;;;;;;;;;;5073726;28;20244;-71
2022/11/03 13:29:38;;;;;;;4.93;2.63;;;;;;;;;;5075262;28;20174;-72
2022/11/03 13:32:04;;;;;;;9.63;2.33;;;;;;;;;;5074966;28;20204;-70
2022/11/03 13:34:30;;;;;;;6.50;2.70;;;;;;;;;;5075209;28;20169;-70
2022/11/03 13:36:56;;;;;;;7.03;2.33;;;;;;;;;;5074918;28;20177;-71
2022/11/03 13:39:22;;;;;;;5.10;2.33;;;;;;;;;;5073384;28;20569;-71
2022/11/03 13:41:48;;;;;;;4.70;2.60;;;;;;;;;;5075058;28;20197;-71
2022/11/03 13:44:14;;;;;;;5.07;2.70;;;;;;;;;;5073591;28;20187;-71
2022/11/03 13:46:40;;;;;;;9.87;2.77;;;;;;;;;;5074742;28;20213;-71
2022/11/03 13:49:05;;;;;;;5.53;2.50;;;;;;;;;;5076009;28;20180;-71
2022/11/03 13:51:31;;;;;;;45.77;4.83;;;;;;;;;;5074963;28;20246;-70
2022/11/03 13:53:57;;;;;;;8.23;2.57;;;;;;;;;;5073859;28;20186;-70
2022/11/03 13:56:23;;;;;;;5.10;2.47;;;;;;;;;;5073973;28;20272;-70
2022/11/03 13:58:49;;;;;;;5.23;2.70;;;;;;;;;;5075487;28;20606;-70
2022/11/03 14:01:15;;;;;;;5.80;2.40;;;;;;;;;;5074368;28;20206;-71
2022/11/03 14:03:41;;;;;;;5.27;2.40;;;;;;;;;;5073405;28;20229;-71
2022/11/03 14:06:08;;;;;;;8.63;2.67;;;;;;;;;;5073074;28;20202;-71
2022/11/03 14:08:34;;;;;;;9.50;2.40;;;;;;;;;;5074381;28;20177;-71
2022/11/03 14:12:29;;;;;;;4.03;2.30;;;;;;;;;;5074527;28;20257;-70
2022/11/03 14:13:49;;;;;;;10.33;3.03;;;;;;;;;;5074071;28;20192;-70
2022/11/03 14:16:15;;;;;;;4.80;2.43;;;;;;;;;;5075003;28;20248;-71
2022/11/03 14:18:41;;;;;;;6.40;2.50;;;;;;;;;;5074112;28;20191;-71
2022/11/03 14:21:07;;;;;;;4.23;2.30;;;;;;;;;;5074561;28;20313;-71
2022/11/03 14:23:32;;;;;;;8.00;2.93;;;;;;;;;;5073383;28;20178;-70
2022/11/03 14:25:58;;;;;;;7.90;2.40;;;;;;;;;;5074639;28;20596;-72
2022/11/03 14:28:24;;;;;;;5.00;2.30;;;;;;;;;;5074364;28;20170;-71
2022/11/03 14:30:50;;;;;;;11.00;3.00;;;;;;;;;;5074666;28;20228;-71
2022/11/03 14:33:16;;;;;;;5.67;2.30;;;;;;;;;;5073217;28;20182;-71
2022/11/03 14:35:42;;;;;;;4.20;2.37;;;;;;;;;;5074415;28;20174;-71
2022/11/03 14:38:08;;;;;;;6.00;2.60;;;;;;;;;;5074151;28;20178;-70
2022/11/03 14:43:19;;;;;;;9.67;2.60;;;;;;;;;;5074266;28;20177;-70
2022/11/03 14:45:45;;;;;;;6.37;2.57;;;;;;;;;;5073886;28;20723;-73
2022/11/03 14:48:11;;;;;;;7.03;2.80;;;;;;;;;;5074152;28;20166;-71
2022/11/03 14:50:37;;;;;;;12.97;3.03;;;;;;;;;;5074305;28;20223;-71
2022/11/03 14:53:03;;;;;;;7.00;2.80;;;;;;;;;;5073680;28;20571;-70
2022/11/03 14:55:29;;;;;;;7.57;3.13;;;;;;;;;;5074095;28;20569;-70
2022/11/03 14:57:55;;;;;;;5.10;2.57;;;;;;;;;;5073794;28;20177;-70
2022/11/03 15:00:21;;;;;;;8.30;2.93;;;;;;;;;;5072635;28;20174;-70
2022/11/03 15:02:47;;;;;;;6.00;3.40;;;;;;;;;;5074048;28;20343;-70